sensor_id;sensor_type;location;lat;lon;timestamp;pressure;altitude;pressure_sealevel;temperature;humidity
16580;BME280;8402;51.466;6.806;2022-10-12T00:00:15;102258.16;;;8.80;76.58
16580;BME280;8402;51.466;6.806;2022-10-12T00:02:43;102264.91;;;8.77;76.97
16580;BME280;8402;51.466;6.806;2022-10-12T00:05:11;102262.75;;;8.74;76.96
16580;BME280;8402;51.466;6.806;2022-10-12T00:07:39;102258.69;;;8.72;76.68
16580;BME280;8402;51.466;6.806;2022-10-12T00:10:07;102262.72;;;8.69;77.67
16580;BME280;8402;51.466;6.806;2022-10-12T00:12:35;102253.78;;;8.69;76.97
16580;BME280;8402;51.466;6.806;2022-10-12T00:15:05;102254.84;;;8.68;77.27
16580;BME280;8402;51.466;6.806;2022-10-12T00:17:33;102252.69;;;8.65;76.75
16580;BME280;8402;51.466;6.806;2022-10-12T00:20:01;102257.53;;;8.63;77.57
16580;BME280;8402;51.466;6.806;2022-10-12T00:22:29;102257.00;;;8.61;77.30
16580;BME280;8402;51.466;6.806;2022-10-12T00:24:57;102262.09;;;8.57;77.52
16580;BME280;8402;51.466;6.806;2022-10-12T00:27:25;102264.00;;;8.57;76.91
16580;BME280;8402;51.466;6.806;2022-10-12T00:29:52;102261.56;;;8.55;77.75
16580;BME280;8402;51.466;6.806;2022-10-12T00:32:22;102264.53;;;8.53;77.50
16580;BME280;8402;51.466;6.806;2022-10-12T00:34:49;102269.41;;;8.51;78.16
16580;BME280;8402;51.466;6.806;2022-10-12T00:37:17;102268.81;;;8.49;77.46
16580;BME280;8402;51.466;6.806;2022-10-12T00:39:45;102270.19;;;8.47;77.47
16580;BME280;8402;51.466;6.806;2022-10-12T00:42:14;102269.38;;;8.46;76.80
16580;BME280;8402;51.466;6.806;2022-10-12T00:44:43;102266.13;;;8.44;77.89
16580;BME280;8402;51.466;6.806;2022-10-12T00:47:19;102263.38;;;8.39;77.99
16580;BME280;8402;51.466;6.806;2022-10-12T00:49:55;102259.84;;;8.39;77.65
16580;BME280;8402;51.466;6.806;2022-10-12T00:52:27;102266.63;;;8.36;78.32
16580;BME280;8402;51.466;6.806;2022-10-12T00:54:57;102264.38;;;8.33;77.43
16580;BME280;8402;51.466;6.806;2022-10-12T00:57:25;102268.16;;;8.32;78.22
16580;BME280;8402;51.466;6.806;2022-10-12T00:59:55;102259.50;;;8.30;78.07
16580;BME280;8402;51.466;6.806;2022-10-12T01:02:27;102261.63;;;8.28;77.90
16580;BME280;8402;51.466;6.806;2022-10-12T01:04:57;102261.38;;;8.24;78.62
16580;BME280;8402;51.466;6.806;2022-10-12T01:07:25;102267.03;;;8.23;78.27
16580;BME280;8402;51.466;6.806;2022-10-12T01:09:53;102255.66;;;8.21;78.55
16580;BME280;8402;51.466;6.806;2022-10-12T01:12:22;102256.19;;;8.18;78.38
16580;BME280;8402;51.466;6.806;2022-10-12T01:14:50;102258.34;;;8.16;78.63
16580;BME280;8402;51.466;6.806;2022-10-12T01:17:27;102249.66;;;8.14;79.11
16580;BME280;8402;51.466;6.806;2022-10-12T01:20:27;102245.31;;;8.08;78.81
16580;BME280;8402;51.466;6.806;2022-10-12T01:23:20;102247.44;;;8.06;78.42
16580;BME280;8402;51.466;6.806;2022-10-12T01:26:11;102248.53;;;8.05;78.65
16580;BME280;8402;51.466;6.806;2022-10-12T01:28:49;102236.09;;;8.04;78.88
16580;BME280;8402;51.466;6.806;2022-10-12T01:31:27;102230.69;;;8.04;78.84
16580;BME280;8402;51.466;6.806;2022-10-12T01:34:02;102237.16;;;8.03;78.67
16580;BME280;8402;51.466;6.806;2022-10-12T01:36:37;102235.78;;;8.00;78.45
16580;BME280;8402;51.466;6.806;2022-10-12T01:39:12;102230.63;;;7.98;78.93
16580;BME280;8402;51.466;6.806;2022-10-12T01:41:45;102230.34;;;7.95;79.19
16580;BME280;8402;51.466;6.806;2022-10-12T01:44:19;102234.38;;;7.92;77.99
16580;BME280;8402;51.466;6.806;2022-10-12T01:46:50;102234.09;;;7.89;78.87
16580;BME280;8402;51.466;6.806;2022-10-12T01:49:21;102238.13;;;7.86;78.45
16580;BME280;8402;51.466;6.806;2022-10-12T01:51:59;102232.97;;;7.85;78.88
16580;BME280;8402;51.466;6.806;2022-10-12T01:54:40;102234.84;;;7.84;79.60
16580;BME280;8402;51.466;6.806;2022-10-12T01:57:16;102237.56;;;7.84;78.97
16580;BME280;8402;51.466;6.806;2022-10-12T01:59:54;102242.41;;;7.82;79.34
16580;BME280;8402;51.466;6.806;2022-10-12T02:02:29;102235.38;;;7.81;78.77
16580;BME280;8402;51.466;6.806;2022-10-12T02:05:04;102230.78;;;7.82;78.43
16580;BME280;8402;51.466;6.806;2022-10-12T02:07:40;102231.06;;;7.80;79.10
16580;BME280;8402;51.466;6.806;2022-10-12T02:10:13;102226.47;;;7.81;78.96
16580;BME280;8402;51.466;6.806;2022-10-12T02:12:44;102232.94;;;7.80;78.46
16580;BME280;8402;51.466;6.806;2022-10-12T02:15:13;102235.88;;;7.78;79.33
16580;BME280;8402;51.466;6.806;2022-10-12T02:17:47;102233.44;;;7.77;78.55
16580;BME280;8402;51.466;6.806;2022-10-12T02:20:19;102225.59;;;7.75;79.54
16580;BME280;8402;51.466;6.806;2022-10-12T02:22:48;102221.81;;;7.76;79.98
16580;BME280;8402;51.466;6.806;2022-10-12T02:25:19;102218.63;;;7.79;79.98
16580;BME280;8402;51.466;6.806;2022-10-12T02:27:51;102208.63;;;7.80;79.91
16580;BME280;8402;51.466;6.806;2022-10-12T02:30:21;102202.41;;;7.79;80.38
16580;BME280;8402;51.466;6.806;2022-10-12T02:32:53;102209.44;;;7.80;79.97
16580;BME280;8402;51.466;6.806;2022-10-12T02:35:27;102205.94;;;7.80;78.54
16580;BME280;8402;51.466;6.806;2022-10-12T02:38:02;102203.47;;;7.78;79.26
16580;BME280;8402;51.466;6.806;2022-10-12T02:40:36;102200.22;;;7.76;79.52
16580;BME280;8402;51.466;6.806;2022-10-12T02:43:08;102194.25;;;7.74;79.00
16580;BME280;8402;51.466;6.806;2022-10-12T02:45:39;102197.47;;;7.71;79.31
16580;BME280;8402;51.466;6.806;2022-10-12T02:48:10;102195.28;;;7.68;78.97
16580;BME280;8402;51.466;6.806;2022-10-12T02:50:41;102196.63;;;7.65;79.77
16580;BME280;8402;51.466;6.806;2022-10-12T02:53:10;102194.16;;;7.64;79.62
16580;BME280;8402;51.466;6.806;2022-10-12T02:55:46;102192.00;;;7.61;79.50
16580;BME280;8402;51.466;6.806;2022-10-12T02:58:15;102179.56;;;7.60;79.68
16580;BME280;8402;51.466;6.806;2022-10-12T03:00:43;102181.72;;;7.58;78.69
16580;BME280;8402;51.466;6.806;2022-10-12T03:03:12;102190.88;;;7.57;79.14
16580;BME280;8402;51.466;6.806;2022-10-12T03:05:40;102186.81;;;7.54;79.04
16580;BME280;8402;51.466;6.806;2022-10-12T03:08:08;102180.59;;;7.54;78.74
16580;BME280;8402;51.466;6.806;2022-10-12T03:10:36;102177.34;;;7.52;79.66
16580;BME280;8402;51.466;6.806;2022-10-12T03:13:04;102175.72;;;7.51;79.35
16580;BME280;8402;51.466;6.806;2022-10-12T03:15:32;102172.44;;;7.49;79.63
16580;BME280;8402;51.466;6.806;2022-10-12T03:18:00;102172.72;;;7.47;79.79
16580;BME280;8402;51.466;6.806;2022-10-12T03:20:29;102172.97;;;7.45;79.28
16580;BME280;8402;51.466;6.806;2022-10-12T03:22:57;102175.94;;;7.44;79.97
16580;BME280;8402;51.466;6.806;2022-10-12T03:25:25;102176.16;;;7.42;79.97
16580;BME280;8402;51.466;6.806;2022-10-12T03:27:52;102173.19;;;7.39;80.04
16580;BME280;8402;51.466;6.806;2022-10-12T03:30:23;102177.22;;;7.36;80.20
16580;BME280;8402;51.466;6.806;2022-10-12T03:32:51;102177.44;;;7.35;79.19
16580;BME280;8402;51.466;6.806;2022-10-12T03:35:18;102173.09;;;7.29;80.12
16580;BME280;8402;51.466;6.806;2022-10-12T03:37:47;102177.63;;;7.23;79.86
16580;BME280;8402;51.466;6.806;2022-10-12T03:40:15;102173.81;;;7.19;80.45
16580;BME280;8402;51.466;6.806;2022-10-12T03:42:43;102173.00;;;7.18;80.04
16580;BME280;8402;51.466;6.806;2022-10-12T03:45:11;102175.16;;;7.16;80.49
16580;BME280;8402;51.466;6.806;2022-10-12T03:47:39;102178.66;;;7.17;80.06
16580;BME280;8402;51.466;6.806;2022-10-12T03:50:07;102174.84;;;7.13;80.93
16580;BME280;8402;51.466;6.806;2022-10-12T03:52:35;102169.19;;;7.14;80.70
16580;BME280;8402;51.466;6.806;2022-10-12T03:55:05;102176.50;;;7.19;81.13
16580;BME280;8402;51.466;6.806;2022-10-12T03:57:33;102177.06;;;7.21;80.49
16580;BME280;8402;51.466;6.806;2022-10-12T04:00:02;102174.13;;;7.23;80.58
16580;BME280;8402;51.466;6.806;2022-10-12T04:02:33;102171.16;;;7.24;80.56
16580;BME280;8402;51.466;6.806;2022-10-12T04:05:01;102164.44;;;7.27;80.88
16580;BME280;8402;51.466;6.806;2022-10-12T04:07:28;102163.34;;;7.28;81.07
16580;BME280;8402;51.466;6.806;2022-10-12T04:09:56;102155.25;;;7.28;80.73
16580;BME280;8402;51.466;6.806;2022-10-12T04:12:25;102154.44;;;7.27;80.29
16580;BME280;8402;51.466;6.806;2022-10-12T04:14:53;102169.00;;;7.26;81.21
16580;BME280;8402;51.466;6.806;2022-10-12T04:17:21;102167.38;;;7.25;81.67
16580;BME280;8402;51.466;6.806;2022-10-12T04:19:49;102166.31;;;7.26;81.18
16580;BME280;8402;51.466;6.806;2022-10-12T04:22:17;102164.44;;;7.27;81.03
16580;BME280;8402;51.466;6.806;2022-10-12T04:24:44;102161.47;;;7.28;81.30
16580;BME280;8402;51.466;6.806;2022-10-12T04:27:12;102157.94;;;7.28;81.56
16580;BME280;8402;51.466;6.806;2022-10-12T04:29:41;102150.66;;;7.28;81.39
16580;BME280;8402;51.466;6.806;2022-10-12T04:32:09;102156.06;;;7.28;80.45
16580;BME280;8402;51.466;6.806;2022-10-12T04:34:38;102156.06;;;7.28;80.60
16580;BME280;8402;51.466;6.806;2022-10-12T04:37:06;102156.06;;;7.28;81.73
16580;BME280;8402;51.466;6.806;2022-10-12T04:39:33;102154.44;;;7.27;80.90
16580;BME280;8402;51.466;6.806;2022-10-12T04:42:01;102156.06;;;7.28;80.97
16580;BME280;8402;51.466;6.806;2022-10-12T04:44:29;102150.66;;;7.28;81.11
16580;BME280;8402;51.466;6.806;2022-10-12T04:46:59;102154.44;;;7.27;81.00
16580;BME280;8402;51.466;6.806;2022-10-12T04:49:27;102164.16;;;7.28;81.14
16580;BME280;8402;51.466;6.806;2022-10-12T04:51:55;102151.50;;;7.29;81.50
16580;BME280;8402;51.466;6.806;2022-10-12T04:54:22;102145.03;;;7.30;81.63
16580;BME280;8402;51.466;6.806;2022-10-12T04:56:50;102154.50;;;7.32;81.96
16580;BME280;8402;51.466;6.806;2022-10-12T04:59:18;102149.63;;;7.34;81.84
16580;BME280;8402;51.466;6.806;2022-10-12T05:01:46;102145.31;;;7.33;81.35
16580;BME280;8402;51.466;6.806;2022-10-12T05:04:15;102144.50;;;7.33;81.78
16580;BME280;8402;51.466;6.806;2022-10-12T05:06:43;102142.63;;;7.33;81.88
16580;BME280;8402;51.466;6.806;2022-10-12T05:09:11;102148.81;;;7.34;82.00
16580;BME280;8402;51.466;6.806;2022-10-12T05:11:42;102144.25;;;7.34;82.48
16580;BME280;8402;51.466;6.806;2022-10-12T05:14:10;102149.63;;;7.34;81.12
16580;BME280;8402;51.466;6.806;2022-10-12T05:16:38;102149.63;;;7.34;81.58
16580;BME280;8402;51.466;6.806;2022-10-12T05:19:06;102146.38;;;7.32;81.72
16580;BME280;8402;51.466;6.806;2022-10-12T05:21:35;102139.38;;;7.31;82.06
16580;BME280;8402;51.466;6.806;2022-10-12T05:24:05;102135.84;;;7.31;81.57
16580;BME280;8402;51.466;6.806;2022-10-12T05:26:33;102135.53;;;7.27;82.55
16580;BME280;8402;51.466;6.806;2022-10-12T05:29:01;102135.53;;;7.22;81.71
16580;BME280;8402;51.466;6.806;2022-10-12T05:31:29;102133.31;;;7.19;82.76
16580;BME280;8402;51.466;6.806;2022-10-12T05:33:57;102132.78;;;7.17;81.89
16580;BME280;8402;51.466;6.806;2022-10-12T05:36:25;102136.53;;;7.16;81.87
16580;BME280;8402;51.466;6.806;2022-10-12T05:38:54;102140.88;;;7.17;82.24
16580;BME280;8402;51.466;6.806;2022-10-12T05:41:22;102137.63;;;7.15;81.99
16580;BME280;8402;51.466;6.806;2022-10-12T05:43:50;102149.47;;;7.14;82.45
16580;BME280;8402;51.466;6.806;2022-10-12T05:46:18;102157.56;;;7.14;81.71
16580;BME280;8402;51.466;6.806;2022-10-12T05:48:46;102159.44;;;7.13;81.50
16580;BME280;8402;51.466;6.806;2022-10-12T05:51:14;102156.50;;;7.15;82.27
16580;BME280;8402;51.466;6.806;2022-10-12T05:53:42;102165.16;;;7.17;81.91
16580;BME280;8402;51.466;6.806;2022-10-12T05:56:11;102163.81;;;7.20;82.46
16580;BME280;8402;51.466;6.806;2022-10-12T05:58:39;102168.97;;;7.21;81.43
16580;BME280;8402;51.466;6.806;2022-10-12T06:01:09;102163.81;;;7.20;82.19
16580;BME280;8402;51.466;6.806;2022-10-12T06:03:37;102169.50;;;7.18;82.09
16580;BME280;8402;51.466;6.806;2022-10-12T06:06:06;102163.53;;;7.16;82.30
16580;BME280;8402;51.466;6.806;2022-10-12T06:08:35;102162.97;;;7.14;82.05
16580;BME280;8402;51.466;6.806;2022-10-12T06:11:03;102158.09;;;7.11;81.57
16580;BME280;8402;51.466;6.806;2022-10-12T06:13:32;102161.84;;;7.10;81.40
16580;BME280;8402;51.466;6.806;2022-10-12T06:16:00;102165.06;;;7.07;81.33
16580;BME280;8402;51.466;6.806;2022-10-12T06:18:28;102162.88;;;7.04;82.24
16580;BME280;8402;51.466;6.806;2022-10-12T06:20:56;102153.16;;;7.03;81.97
16580;BME280;8402;51.466;6.806;2022-10-12T06:23:43;102159.88;;;7.00;81.69
16580;BME280;8402;51.466;6.806;2022-10-12T06:26:12;102165.28;;;7.00;81.70
16580;BME280;8402;51.466;6.806;2022-10-12T06:28:41;102156.59;;;6.98;82.21
16580;BME280;8402;51.466;6.806;2022-10-12T06:31:09;102167.66;;;6.97;81.38
16580;BME280;8402;51.466;6.806;2022-10-12T06:33:37;102156.31;;;6.95;81.49
16580;BME280;8402;51.466;6.806;2022-10-12T06:36:05;102163.34;;;6.96;81.33
16580;BME280;8402;51.466;6.806;2022-10-12T06:38:33;102160.91;;;6.94;81.11
16580;BME280;8402;51.466;6.806;2022-10-12T06:41:01;102173.59;;;6.94;82.46
16580;BME280;8402;51.466;6.806;2022-10-12T06:43:29;102166.31;;;6.94;82.75
16580;BME280;8402;51.466;6.806;2022-10-12T06:45:59;102167.66;;;6.97;82.16
16580;BME280;8402;51.466;6.806;2022-10-12T06:48:28;102167.97;;;7.00;81.99
16580;BME280;8402;51.466;6.806;2022-10-12T06:50:56;102163.94;;;7.03;81.98
16580;BME280;8402;51.466;6.806;2022-10-12T06:53:24;102172.59;;;7.05;82.39
16580;BME280;8402;51.466;6.806;2022-10-12T06:55:54;102168.81;;;7.06;82.16
16580;BME280;8402;51.466;6.806;2022-10-12T06:58:22;102168.34;;;7.09;81.75
16580;BME280;8402;51.466;6.806;2022-10-12T07:00:49;102164.56;;;7.10;82.11
16580;BME280;8402;51.466;6.806;2022-10-12T07:03:20;102162.41;;;7.12;81.43
16580;BME280;8402;51.466;6.806;2022-10-12T07:05:48;102162.97;;;7.14;82.41
16580;BME280;8402;51.466;6.806;2022-10-12T07:08:16;102159.75;;;7.17;82.54
16580;BME280;8402;51.466;6.806;2022-10-12T07:10:44;102157.63;;;7.19;82.57
16580;BME280;8402;51.466;6.806;2022-10-12T07:13:11;102161.44;;;7.23;82.49
16580;BME280;8402;51.466;6.806;2022-10-12T07:15:39;102151.19;;;7.25;82.60
16580;BME280;8402;51.466;6.806;2022-10-12T07:18:07;102147.72;;;7.30;82.49
16580;BME280;8402;51.466;6.806;2022-10-12T07:20:36;102142.63;;;7.33;82.37
16580;BME280;8402;51.466;6.806;2022-10-12T07:23:05;102139.97;;;7.38;83.33
16580;BME280;8402;51.466;6.806;2022-10-12T07:25:33;102143.75;;;7.42;82.74
16580;BME280;8402;51.466;6.806;2022-10-12T07:28:01;102146.84;;;7.56;84.05
16580;BME280;8402;51.466;6.806;2022-10-12T07:30:31;102150.75;;;7.76;84.75
16580;BME280;8402;51.466;6.806;2022-10-12T07:32:59;102134.94;;;7.99;85.54
16580;BME280;8402;51.466;6.806;2022-10-12T07:35:27;102134.00;;;8.26;85.14
16580;BME280;8402;51.466;6.806;2022-10-12T07:37:56;102134.13;;;8.51;86.45
16580;BME280;8402;51.466;6.806;2022-10-12T07:40:24;102133.91;;;8.73;86.05
16580;BME280;8402;51.466;6.806;2022-10-12T07:42:52;102134.22;;;8.92;85.06
16580;BME280;8402;51.466;6.806;2022-10-12T07:45:41;102133.97;;;9.04;86.52
16580;BME280;8402;51.466;6.806;2022-10-12T07:48:09;102132.06;;;9.20;86.67
16580;BME280;8402;51.466;6.806;2022-10-12T07:50:37;102128.84;;;9.38;87.21
16580;BME280;8402;51.466;6.806;2022-10-12T07:53:06;102126.66;;;9.50;86.70
16580;BME280;8402;51.466;6.806;2022-10-12T07:55:34;102130.69;;;9.63;85.98
16580;BME280;8402;51.466;6.806;2022-10-12T07:58:02;102131.50;;;9.74;86.08
16580;BME280;8402;51.466;6.806;2022-10-12T08:00:30;102130.91;;;9.92;86.78
16580;BME280;8402;51.466;6.806;2022-10-12T08:02:58;102127.06;;;10.08;86.66
16580;BME280;8402;51.466;6.806;2022-10-12T08:05:26;102129.22;;;10.16;86.22
16580;BME280;8402;51.466;6.806;2022-10-12T08:07:54;102130.25;;;10.20;85.94
16580;BME280;8402;51.466;6.806;2022-10-12T08:10:23;102131.38;;;10.25;85.99
16580;BME280;8402;51.466;6.806;2022-10-12T08:12:51;102130.81;;;10.28;85.56
16580;BME280;8402;51.466;6.806;2022-10-12T08:15:19;102134.06;;;10.30;86.17
16580;BME280;8402;51.466;6.806;2022-10-12T08:17:47;102135.94;;;10.34;85.78
16580;BME280;8402;51.466;6.806;2022-10-12T08:20:15;102132.38;;;10.39;86.70
16580;BME280;8402;51.466;6.806;2022-10-12T08:22:42;102126.13;;;10.43;86.63
16580;BME280;8402;51.466;6.806;2022-10-12T08:25:10;102129.91;;;10.47;86.53
16580;BME280;8402;51.466;6.806;2022-10-12T08:27:40;102135.59;;;10.51;86.57
16580;BME280;8402;51.466;6.806;2022-10-12T08:30:08;102125.78;;;10.55;85.95
16580;BME280;8402;51.466;6.806;2022-10-12T08:32:36;102125.25;;;10.58;85.87
16580;BME280;8402;51.466;6.806;2022-10-12T08:35:06;102124.09;;;10.64;85.95
16580;BME280;8402;51.466;6.806;2022-10-12T08:37:34;102124.38;;;10.68;86.36
16580;BME280;8402;51.466;6.806;2022-10-12T08:40:03;102125.69;;;10.75;86.08
16580;BME280;8402;51.466;6.806;2022-10-12T08:42:47;102118.06;;;10.78;85.04
16580;BME280;8402;51.466;6.806;2022-10-12T08:45:26;102119.66;;;10.84;85.62
16580;BME280;8402;51.466;6.806;2022-10-12T08:48:00;102109.56;;;10.89;85.64
16580;BME280;8402;51.466;6.806;2022-10-12T08:50:34;102106.81;;;10.94;85.32
16580;BME280;8402;51.466;6.806;2022-10-12T08:53:12;102113.56;;;11.02;85.23
16580;BME280;8402;51.466;6.806;2022-10-12T08:55:43;102114.28;;;11.13;85.15
16580;BME280;8402;51.466;6.806;2022-10-12T08:58:15;102119.38;;;11.19;84.59
16580;BME280;8402;51.466;6.806;2022-10-12T09:00:46;102117.41;;;11.30;84.61
16580;BME280;8402;51.466;6.806;2022-10-12T09:03:25;102107.75;;;11.43;84.47
16580;BME280;8402;51.466;6.806;2022-10-12T09:06:04;102113.06;;;11.58;84.20
16580;BME280;8402;51.466;6.806;2022-10-12T09:08:46;102109.66;;;11.71;83.37
16580;BME280;8402;51.466;6.806;2022-10-12T09:11:27;102112.81;;;11.83;83.68
16580;BME280;8402;51.466;6.806;2022-10-12T09:14:04;102107.28;;;11.94;83.39
16580;BME280;8402;51.466;6.806;2022-10-12T09:16:34;102113.19;;;12.01;83.97
16580;BME280;8402;51.466;6.806;2022-10-12T09:19:14;102110.13;;;12.07;83.24
16580;BME280;8402;51.466;6.806;2022-10-12T09:21:46;102122.19;;;12.20;82.78
16580;BME280;8402;51.466;6.806;2022-10-12T09:24:17;102115.28;;;12.28;81.48
16580;BME280;8402;51.466;6.806;2022-10-12T09:26:49;102120.59;;;12.38;82.16
16580;BME280;8402;51.466;6.806;2022-10-12T09:29:25;102125.03;;;12.53;82.01
16580;BME280;8402;51.466;6.806;2022-10-12T09:32:06;102128.13;;;12.65;80.44
16580;BME280;8402;51.466;6.806;2022-10-12T09:34:36;102116.41;;;12.83;80.94
16580;BME280;8402;51.466;6.806;2022-10-12T09:37:05;102116.78;;;12.95;81.33
16580;BME280;8402;51.466;6.806;2022-10-12T09:39:35;102111.16;;;13.06;81.14
16580;BME280;8402;51.466;6.806;2022-10-12T09:42:04;102121.31;;;13.19;81.05
16580;BME280;8402;51.466;6.806;2022-10-12T09:44:35;102112.09;;;13.34;79.68
16580;BME280;8402;51.466;6.806;2022-10-12T09:47:21;102112.13;;;13.47;80.56
16580;BME280;8402;51.466;6.806;2022-10-12T09:49:51;102101.47;;;13.65;80.87
16580;BME280;8402;51.466;6.806;2022-10-12T09:52:21;102109.34;;;13.80;80.12
16580;BME280;8402;51.466;6.806;2022-10-12T09:54:50;102113.00;;;13.89;77.98
16580;BME280;8402;51.466;6.806;2022-10-12T09:57:21;102104.50;;;14.04;77.99
16580;BME280;8402;51.466;6.806;2022-10-12T09:59:51;102097.59;;;14.21;77.29
16580;BME280;8402;51.466;6.806;2022-10-12T10:02:20;102093.72;;;14.36;77.95
16580;BME280;8402;51.466;6.806;2022-10-12T10:04:49;102090.91;;;14.54;78.23
16580;BME280;8402;51.466;6.806;2022-10-12T10:07:25;102084.97;;;14.75;76.47
16580;BME280;8402;51.466;6.806;2022-10-12T10:10:06;102092.19;;;14.93;73.84
16580;BME280;8402;51.466;6.806;2022-10-12T10:12:46;102087.47;;;15.07;74.34
16580;BME280;8402;51.466;6.806;2022-10-12T10:15:22;102092.47;;;15.14;74.15
16580;BME280;8402;51.466;6.806;2022-10-12T10:17:52;102093.16;;;15.20;75.42
16580;BME280;8402;51.466;6.806;2022-10-12T10:20:28;102097.13;;;15.13;71.99
16580;BME280;8402;51.466;6.806;2022-10-12T10:22:57;102086.06;;;15.19;74.16
16580;BME280;8402;51.466;6.806;2022-10-12T10:25:28;102098.31;;;15.21;72.90
16580;BME280;8402;51.466;6.806;2022-10-12T10:28:15;102095.88;;;15.20;72.72
16580;BME280;8402;51.466;6.806;2022-10-12T10:30:57;102104.47;;;15.27;72.45
16580;BME280;8402;51.466;6.806;2022-10-12T10:33:26;102101.66;;;15.40;73.55
16580;BME280;8402;51.466;6.806;2022-10-12T10:35:57;102094.63;;;15.57;74.13
16580;BME280;8402;51.466;6.806;2022-10-12T10:38:26;102082.50;;;15.72;72.91
16580;BME280;8402;51.466;6.806;2022-10-12T10:40:55;102083.84;;;15.83;72.65
16580;BME280;8402;51.466;6.806;2022-10-12T10:43:26;102075.00;;;15.86;69.87
16580;BME280;8402;51.466;6.806;2022-10-12T10:45:58;102076.97;;;15.94;70.06
16580;BME280;8402;51.466;6.806;2022-10-12T10:48:48;102086.63;;;16.00;68.41
16580;BME280;8402;51.466;6.806;2022-10-12T10:51:18;102080.53;;;16.03;68.59
16580;BME280;8402;51.466;6.806;2022-10-12T10:53:50;102073.59;;;16.06;70.08
16580;BME280;8402;51.466;6.806;2022-10-12T10:56:20;102080.88;;;16.10;70.29
16580;BME280;8402;51.466;6.806;2022-10-12T10:58:52;102072.66;;;16.19;69.90
16580;BME280;8402;51.466;6.806;2022-10-12T11:01:27;102067.38;;;16.22;69.36
16580;BME280;8402;51.466;6.806;2022-10-12T11:04:00;102077.19;;;16.32;70.24
16580;BME280;8402;51.466;6.806;2022-10-12T11:06:36;102077.34;;;16.36;68.30
16580;BME280;8402;51.466;6.806;2022-10-12T11:09:09;102066.72;;;16.43;69.15
16580;BME280;8402;51.466;6.806;2022-10-12T11:11:39;102073.19;;;16.47;68.41
16580;BME280;8402;51.466;6.806;2022-10-12T11:14:14;102065.28;;;16.54;66.99
16580;BME280;8402;51.466;6.806;2022-10-12T11:16:46;102067.38;;;16.57;65.65
16580;BME280;8402;51.466;6.806;2022-10-12T11:19:23;102059.66;;;16.59;66.53
16580;BME280;8402;51.466;6.806;2022-10-12T11:21:54;102058.06;;;16.58;67.13
16580;BME280;8402;51.466;6.806;2022-10-12T11:24:27;102052.38;;;16.63;67.08
16580;BME280;8402;51.466;6.806;2022-10-12T11:27:02;102047.41;;;16.65;66.37
16580;BME280;8402;51.466;6.806;2022-10-12T11:29:32;102048.38;;;16.69;67.36
16580;BME280;8402;51.466;6.806;2022-10-12T11:32:03;102040.81;;;16.75;67.21
16580;BME280;8402;51.466;6.806;2022-10-12T11:34:40;102039.53;;;16.81;66.40
16580;BME280;8402;51.466;6.806;2022-10-12T11:37:17;102036.13;;;16.84;65.71
16580;BME280;8402;51.466;6.806;2022-10-12T11:39:49;102038.22;;;16.87;65.26
16580;BME280;8402;51.466;6.806;2022-10-12T11:42:26;102033.84;;;16.95;65.34
16580;BME280;8402;51.466;6.806;2022-10-12T11:44:55;102033.53;;;16.96;65.27
16580;BME280;8402;51.466;6.806;2022-10-12T11:47:31;102037.38;;;17.04;63.06
16580;BME280;8402;51.466;6.806;2022-10-12T11:50:04;102030.44;;;17.06;64.03
16580;BME280;8402;51.466;6.806;2022-10-12T11:52:36;102025.75;;;17.07;63.71
16580;BME280;8402;51.466;6.806;2022-10-12T11:55:34;102024.81;;;17.03;62.49
16580;BME280;8402;51.466;6.806;2022-10-12T11:58:08;102024.59;;;17.17;64.08
16580;BME280;8402;51.466;6.806;2022-10-12T12:00:54;102024.75;;;17.20;63.01
16580;BME280;8402;51.466;6.806;2022-10-12T12:03:29;102016.00;;;17.27;63.15
16580;BME280;8402;51.466;6.806;2022-10-12T12:09:16;102008.25;;;17.38;63.09
16580;BME280;8402;51.466;6.806;2022-10-12T12:11:45;102014.94;;;17.49;62.76
16580;BME280;8402;51.466;6.806;2022-10-12T12:14:44;102013.22;;;17.36;60.34
16580;BME280;8402;51.466;6.806;2022-10-12T12:17:19;102018.41;;;17.37;60.66
16580;BME280;8402;51.466;6.806;2022-10-12T12:19:50;102024.75;;;17.29;61.18
16580;BME280;8402;51.466;6.806;2022-10-12T12:22:20;102016.50;;;17.20;61.42
16580;BME280;8402;51.466;6.806;2022-10-12T12:24:54;102008.94;;;17.17;62.30
16580;BME280;8402;51.466;6.806;2022-10-12T12:27:31;102008.50;;;17.15;61.74
16580;BME280;8402;51.466;6.806;2022-10-12T12:30:02;102001.19;;;17.19;62.51
16580;BME280;8402;51.466;6.806;2022-10-12T12:32:42;101993.44;;;17.21;61.00
16580;BME280;8402;51.466;6.806;2022-10-12T12:35:22;101991.66;;;17.25;61.39
16580;BME280;8402;51.466;6.806;2022-10-12T12:38:15;101981.81;;;17.24;61.58
16580;BME280;8402;51.466;6.806;2022-10-12T12:41:04;101982.75;;;17.28;59.96
16580;BME280;8402;51.466;6.806;2022-10-12T12:43:51;101977.28;;;17.28;61.72
16580;BME280;8402;51.466;6.806;2022-10-12T12:46:23;101968.06;;;17.33;61.78
16580;BME280;8402;51.466;6.806;2022-10-12T12:49:01;101970.84;;;17.24;59.30
16580;BME280;8402;51.466;6.806;2022-10-12T12:51:39;101961.47;;;17.25;59.90
16580;BME280;8402;51.466;6.806;2022-10-12T12:54:15;101959.41;;;17.22;59.45
16580;BME280;8402;51.466;6.806;2022-10-12T12:57:08;101959.41;;;17.22;60.02
16580;BME280;8402;51.466;6.806;2022-10-12T13:00:13;101948.91;;;17.24;61.08
16580;BME280;8402;51.466;6.806;2022-10-12T13:03:20;101954.22;;;17.29;60.91
16580;BME280;8402;51.466;6.806;2022-10-12T13:09:31;101943.03;;;17.34;60.83
16580;BME280;8402;51.466;6.806;2022-10-12T13:12:16;101936.91;;;17.38;61.15
16580;BME280;8402;51.466;6.806;2022-10-12T13:15:04;101948.69;;;17.38;61.01
16580;BME280;8402;51.466;6.806;2022-10-12T13:17:45;101944.28;;;17.46;61.14
16580;BME280;8402;51.466;6.806;2022-10-12T13:20:22;101949.59;;;17.51;61.61
16580;BME280;8402;51.466;6.806;2022-10-12T13:22:53;101942.28;;;17.55;62.09
16580;BME280;8402;51.466;6.806;2022-10-12T13:25:31;101939.06;;;17.53;61.25
16580;BME280;8402;51.466;6.806;2022-10-12T13:28:03;101938.13;;;17.49;61.29
16580;BME280;8402;51.466;6.806;2022-10-12T13:30:35;101932.63;;;17.49;61.98
16580;BME280;8402;51.466;6.806;2022-10-12T13:33:14;101924.91;;;17.51;61.11
16580;BME280;8402;51.466;6.806;2022-10-12T13:35:53;101912.91;;;17.55;61.72
16580;BME280;8402;51.466;6.806;2022-10-12T13:38:24;101908.69;;;17.58;61.09